East Dereham, United Kingdom
Current Conditions -  °F | °C
As of 9:20 PM on Wednesday 17 Dec 2014 (Local Time) from EGSH Reporting Station
Scattered Clouds Scattered Clouds  
Wind Chill: 52°   Ceiling: Unl
Heat Index: 52°   Visibility: 6mi
Dew Point: 50°   Wind: 15mph
Humidity: 94%   Direction: 250°WSW
Pressure: 29.71"   Gusts: NA
Location:  52.68°N, 0.93°E
Report Text: EGSH 172120Z 25013KT 9999 SCT016 11/10 Q1006
Loading
Personal Weather Stations






























Interactive Weather Map New forecast layout! Learn more

10-Day Weather Forecast

Advertisements
Track Severe Weather on mobile